Latest Flight | Flight Log | Data Trends | Login | Join FlightData.com!
Flight Info - N595MW (Cirrus SR22 #4359)
Date
Origin
Dest
Depart
Arrive
Hobbs
Flight Time
Ground Time
Flight Distance
Taxi Distance
Fuel
Fuel/hr
Fuel/nm
Altitude
Gnd Speed
Sat, Nov 20, 2021 KCON KCON 17:41 17:44 0.05 hrs 0 hrs (0:00) 0.05 hrs (0:03) 0 nm 0.11 nm 0.11 gal 2.45 gal/hr 0 gal/nm 0 msl 0 kts
Flight Track | Google Earth Export: 3D View, Cockpit View
NEXRAD Archive
Zoom In: Double click. Zoom Out: Double right-click.
Scroll Map: Left-click and drag. Show on graph: Click on track.
Graph | Increase Sample Rate (1 sec) |
Zoom In: Click and Drag to the right and down. Zoom Out: Click and Drag to the left.
Scroll Chart (while zoomed in): Hold right mouse-button.
Autopilot / COM
AP/FD:
Mode:
COMs:
NAVs:
AP:
FD:
HSI Sel CRS Sel ActvWpt Dist
-NA-
More Flights - N595MW
Wed, Nov 3, 2021 KCON KCON 21:13 22:01 0.74 hrs 0.29 hrs 33.51 nm 5.86 gal 7.90 gal/hr 0.17 gal/nm 3038 msl 110 kts
Sat, Nov 6, 2021 KCON KNHZ 14:34 15:38 1 hrs 0.73 hrs 123.96 nm 14.34 gal 14.35 gal/hr 0.12 gal/nm 5648 msl 160 kts
Cruise 15:04:44 15:06:15   1m 31s 4.14 nm 0.43 gal 17 gal/h 0.1 gal/nm 5499 feet 163 kts    
Cruise 15:21:48 15:26:39   4m 51s 13.79 nm 1.3 gal 16 gal/h 0.09 gal/nm 5496 feet 183 kts    
Sun, Nov 7, 2021 KCON KCON 16:10 19:06 2.75 hrs 2.27 hrs 377.72 nm 43.34 gal 15.78 gal/hr 0.11 gal/nm 9531 msl 157 kts
Cruise 16:47:58 16:50:31   2m 33s 7.23 nm 0.77 gal 18 gal/h 0.11 gal/nm 8001 feet 161 kts    
Cruise 16:56:03 17:35:01   38m 58s 110.45 nm 11.7 gal 18 gal/h 0.11 gal/nm 8000 feet 156 kts    
Cruise 18:17:46 18:31:15   13m 29s 38.25 nm 4.28 gal 19 gal/h 0.11 gal/nm 9501 feet 184 kts    
Cruise 18:36:26 18:43:40   7m 14s 20.78 nm 2.18 gal 18 gal/h 0.1 gal/nm 9501 feet 182 kts    
Cruise 18:48:47 18:48:59   12s 0.64 nm 0.07 gal 18 gal/h 0.11 gal/nm 9374 feet 193 kts    
Sun, Nov 7, 2021 KCON KCON 19:16 19:19 0.04 hrs 0 hrs 0.00 nm 0.11 gal 2.73 gal/hr 0.00 gal/nm 0 msl 0 kts
Sat, Nov 13, 2021 KCON KCON 16:23 18:49 2.27 hrs 1.46 hrs 205.15 nm 27.03 gal 11.93 gal/hr 0.13 gal/nm 7011 msl 131 kts
Cruise 18:21:12 18:30:46   9m 34s 26.51 nm 2.72 gal 17 gal/h 0.1 gal/nm 4498 feet 164 kts    
Sat, Nov 20, 2021 KCON KCON 15:17 17:30 2.09 hrs 1.59 hrs 233.90 nm 27.54 gal 13.17 gal/hr 0.12 gal/nm 6087 msl 137 kts
Cruise 15:56:56 15:59:56   3m 00s 7.89 nm 0.7 gal 14 gal/h 0.09 gal/nm 5999 feet 147 kts    
Cruise 16:26:10 16:31:01   4m 51s 9.81 nm 1.05 gal 13 gal/h 0.11 gal/nm 4001 feet 122 kts    
Cruise 16:42:14 16:51:50   9m 36s 26.93 nm 2.89 gal 18 gal/h 0.11 gal/nm 5500 feet 173 kts    
Cruise 17:17:08 17:22:47   5m 39s 13.6 nm 1.32 gal 14 gal/h 0.1 gal/nm 4000 feet 143 kts    
Sat, Nov 20, 2021 KCON KCON 17:41 17:44 0.05 hrs 0 hrs 0.00 nm 0.11 gal 2.45 gal/hr 0.00 gal/nm 0 msl 0 kts
Sun, Mar 4, 2018 KCLW KORF 13:23 18:04 4.45 hrs 4.3 hrs 638.32 nm 68.58 gal 15.39 gal/hr 0.11 gal/nm 11007 msl 141 kts
Cruise 13:42:56 14:20:27   37m 31s 98.84 nm 9.38 gal 15 gal/h 0.09 gal/nm 4000 feet 147 kts    
Cruise 14:27:01 15:20:50   53m 49s 141.76 nm 13.46 gal 15 gal/h 0.09 gal/nm 5000 feet 139 kts    
Cruise 15:35:27 15:59:35   24m 08s 65.21 nm 5.64 gal 14 gal/h 0.09 gal/nm 10999 feet 139 kts    
Cruise 16:12:14 17:46:16   1h 34m 257.07 nm 23.51 gal 15 gal/h 0.09 gal/nm 7000 feet 145 kts    
Sun, Mar 4, 2018 KCLW KFMY 09:02 09:57 0.88 hrs 0.6 hrs 109.07 nm 12.04 gal 13.64 gal/hr 0.11 gal/nm 5505 msl 171 kts
Cruise 09:35:13 09:43:45   8m 32s 23.09 nm 2.14 gal 15 gal/h 0.09 gal/nm 5498 feet 183 kts    
Fri, Aug 26, 2016 KCLT KHPN 17:15 21:00 3.57 hrs 3.27 hrs 518.08 nm 65.28 gal 18.28 gal/hr 0.13 gal/nm 9028 msl 151 kts
Cruise 18:00:33 19:53:21   1h 52m 308.37 nm 35.73 gal 19 gal/h 0.12 gal/nm 8999 feet 153 kts    
Cruise 20:00:57 20:37:03   36m 06s 100.52 nm 11.44 gal 19 gal/h 0.11 gal/nm 7499 feet 158 kts    
Sat, Nov 5, 2016 KCLE KSBN 11:31 13:09 1.53 hrs 1.34 hrs 202.49 nm 23.46 gal 15.32 gal/hr 0.12 gal/nm 6019 msl 144 kts
Cruise 11:55:45 12:53:23   57m 38s 157.58 nm 15.37 gal 16 gal/h 0.1 gal/nm 6000 feet 147 kts    
Thu, Oct 20, 2016 KBWI KHPN 15:05 16:38 1.42 hrs 1.1 hrs 206.29 nm 24.64 gal 17.34 gal/hr 0.12 gal/nm 7084 msl 168 kts
Cruise 15:38:37 16:00:29   21m 52s 60.54 nm 6.57 gal 18 gal/h 0.11 gal/nm 7000 feet 188 kts    
Cruise 16:21:54 16:24:30   2m 36s 7.02 nm 0.96 gal 22 gal/h 0.14 gal/nm 3000 feet 165 kts    
Thu, Oct 12, 2017 KBWI KHPN 17:49 19:55 1.99 hrs 1.67 hrs 259.66 nm 29.79 gal 14.95 gal/hr 0.11 gal/nm 9021 msl 148 kts
Cruise 18:21:29 18:26:50   5m 21s 14.31 nm 1.34 gal 15 gal/h 0.09 gal/nm 7001 feet 166 kts    
Cruise 18:37:05 18:42:34   5m 29s 14.85 nm 1.38 gal 15 gal/h 0.09 gal/nm 8996 feet 168 kts    
Cruise 18:55:51 19:08:41   12m 50s 35.34 nm 3.43 gal 16 gal/h 0.1 gal/nm 4997 feet 155 kts    
Complete Flight Log (1236)
FlightData.com is sponsored by AEROCOR